createdAt,value
2023-03-06T00:09:08.297Z,997.4
2023-03-06T00:19:08.273Z,997.3
2023-03-06T00:29:08.267Z,997.2
2023-03-06T00:39:08.204Z,997.1
2023-03-06T00:49:08.219Z,997
2023-03-06T00:59:08.165Z,996.9
2023-03-06T01:09:08.127Z,996.8
2023-03-06T01:19:08.103Z,996.7
2023-03-06T01:29:08.085Z,996.6
2023-03-06T01:39:08.074Z,996.4
2023-03-06T01:49:08.106Z,996.3
2023-03-06T01:59:08.021Z,996.2
2023-03-06T02:09:08.021Z,996.1
2023-03-06T02:19:07.981Z,996
2023-03-06T02:29:07.957Z,996
2023-03-06T02:49:07.885Z,995.8
2023-03-06T02:59:07.876Z,995.7
2023-03-06T03:09:07.863Z,995.6
2023-03-06T03:19:07.833Z,995.5
2023-03-06T03:29:07.928Z,995.4
2023-03-06T03:39:07.803Z,995.4
2023-03-06T03:49:07.751Z,995.4
2023-03-06T03:59:07.742Z,995.3
2023-03-06T04:09:07.715Z,995.2
2023-03-06T04:19:07.686Z,995.1
2023-03-06T04:29:07.695Z,995
2023-03-06T04:39:07.669Z,994.8
2023-03-06T04:49:07.637Z,994.7
2023-03-06T04:59:07.605Z,994.6
2023-03-06T05:09:07.564Z,994.5
2023-03-06T05:19:07.593Z,994.5
2023-03-06T05:29:07.509Z,994.5
2023-03-06T05:39:07.498Z,994.5
2023-03-06T05:49:07.499Z,994.5
2023-03-06T05:59:07.453Z,994.5
2023-03-06T06:09:07.437Z,994.5
2023-03-06T06:19:07.399Z,994.5
2023-03-06T06:29:07.379Z,994.5
2023-03-06T06:39:07.350Z,994.5
2023-03-06T06:49:07.514Z,994.5
2023-03-06T06:59:07.343Z,994.4
2023-03-06T07:09:07.424Z,994.5
2023-03-06T07:19:07.475Z,994.5
2023-03-06T07:29:07.245Z,994.6
2023-03-06T07:39:07.446Z,994.6
2023-03-06T07:49:07.333Z,994.6
2023-03-06T07:59:07.168Z,994.6
2023-03-06T08:09:07.307Z,994.7
2023-03-06T08:19:07.249Z,994.7
2023-03-06T08:29:07.235Z,994.7
2023-03-06T08:39:07.218Z,994.6
2023-03-06T08:49:07.167Z,994.7
2023-03-06T08:59:07.167Z,994.7
2023-03-06T09:09:06.979Z,994.7
2023-03-06T09:19:07.002Z,994.7
2023-03-06T09:29:06.966Z,994.7
2023-03-06T09:39:07.119Z,994.7
2023-03-06T09:49:06.985Z,994.7
2023-03-06T09:59:06.962Z,994.7
2023-03-06T10:09:06.968Z,994.8
2023-03-06T10:19:06.898Z,994.6
2023-03-06T10:29:06.844Z,994.6
2023-03-06T10:39:06.922Z,994.6
2023-03-06T10:49:06.828Z,994.6
2023-03-06T10:59:06.820Z,994.5
2023-03-06T11:09:06.709Z,994.5
2023-03-06T11:19:06.861Z,994.6
2023-03-06T11:29:06.659Z,994.6
2023-03-06T11:39:06.722Z,994.6
2023-03-06T11:49:06.757Z,994.6
2023-03-06T11:59:06.648Z,994.6
2023-03-06T12:19:06.515Z,994.4
2023-03-06T12:29:06.509Z,994.4
2023-03-06T12:39:06.474Z,994.4
2023-03-06T12:49:06.434Z,994.3
2023-03-06T12:59:06.604Z,994.2
2023-03-06T13:09:06.469Z,994.3
2023-03-06T13:19:06.420Z,994.2
2023-03-06T13:29:06.375Z,994.1
2023-03-06T13:39:06.449Z,994
2023-03-06T13:49:06.306Z,994
2023-03-06T13:59:06.289Z,994
2023-03-06T14:09:06.345Z,994.1
2023-03-06T14:19:06.372Z,994
2023-03-06T14:29:06.323Z,993.8
2023-03-06T14:39:06.369Z,993.8
2023-03-06T14:49:06.373Z,993.7
2023-03-06T14:59:06.348Z,993.6
2023-03-06T15:09:06.190Z,993.6
2023-03-06T15:19:06.135Z,993.6
2023-03-06T15:29:06.050Z,993.5
2023-03-06T15:39:06.171Z,993.4
2023-03-06T15:49:06.044Z,993.4
2023-03-06T15:59:06.004Z,993.4
2023-03-06T16:09:05.982Z,993.3
2023-03-06T16:19:05.914Z,993.2
2023-03-06T16:39:05.938Z,993
2023-03-06T16:49:05.968Z,992.9
2023-03-06T16:59:05.806Z,992.9
2023-03-06T17:09:05.779Z,992.9
2023-03-06T17:19:05.780Z,992.8
2023-03-06T17:29:05.736Z,992.8
2023-03-06T17:39:05.778Z,992.7
2023-03-06T17:49:05.684Z,992.7
2023-03-06T17:59:05.672Z,992.6
2023-03-06T18:09:05.648Z,992.6
2023-03-06T18:19:05.602Z,992.6
2023-03-06T18:29:05.599Z,992.5
2023-03-06T18:39:05.576Z,992.5
2023-03-06T18:49:05.529Z,992.5
2023-03-06T18:59:05.499Z,992.4
2023-03-06T19:09:05.579Z,992.3
2023-03-06T19:19:05.480Z,992.3
2023-03-06T19:29:05.460Z,992.2
2023-03-06T19:39:05.442Z,992
2023-03-06T19:49:05.417Z,991.9
2023-03-06T19:59:05.370Z,991.9
2023-03-06T20:09:05.358Z,991.8
2023-03-06T20:19:05.407Z,991.7
2023-03-06T20:29:05.300Z,991.5
2023-03-06T20:39:05.266Z,991.4
2023-03-06T20:49:05.257Z,991.3
2023-03-06T20:59:05.352Z,991.4
2023-03-06T21:09:05.197Z,991.3
2023-03-06T21:19:05.195Z,991.3
2023-03-06T21:29:05.153Z,991.1
2023-03-06T21:39:05.119Z,991
2023-03-06T21:49:05.106Z,990.8
2023-03-06T21:59:53.050Z,990.6
2023-03-06T22:09:06.818Z,990.6
2023-03-06T22:19:06.738Z,990.4
2023-03-06T22:29:06.721Z,990.3
2023-03-06T22:39:06.682Z,990.1
2023-03-06T22:49:06.642Z,989.9
2023-03-06T22:59:06.701Z,989.7
2023-03-06T23:09:06.594Z,989.6
2023-03-06T23:19:06.612Z,989.5
2023-03-06T23:29:06.558Z,989.5
2023-03-06T23:39:06.544Z,989.4
2023-03-06T23:49:06.508Z,989.2
2023-03-06T23:59:06.476Z,989.1
